x

Buoy B01 - Western Maine Shelf (44030) Wave Buoy

1:04am - Mon 26th Jan 2015 All times are EST. -5 hours from GMT.

  • Sig Wave height 2.0ft
  • Peak Period 3s
  • Wind
    13mph, 18mph gusts
  • Sea Temp 41°f
  • Air Temp 17°f
  • Sea Pressure 1016.7mb
  • Buoy B01 - Western Maine Shelf
  • Buoy B01 - Western Maine Shelf

More Historic Weather Station data

Upgrade to MSW Pro to gain access to the past 30 days of data for over 8000 Wavebouys and Weather Stations around the globe.

Join Pro

Comparision Forecast

View Surf forecast
   
Mon 01/26 1:04am 2ft 3s 13 18 mph 1016.7mb 41f 17f
12:04am 2.5ft 4s 18 25 mph 1016mb 41f 18f
Sun 01/25 11:04pm 2.5ft 3s 22 27 mph 1015.4mb 41f 20f
10:04pm  -   -  22 27 mph 1014.3mb 42f 20f
9:04pm 3ft 4s 22 29 mph 1013.4mb 41f 21f
8:04pm 3ft 4s 27 34 mph 1011.8mb 41f 23f
7:04pm  -   -  22 29 mph 1010.1mb 41f 25f
6:04pm  -   -  22 29 mph 1009.1mb 41f 28f
5:04pm 3.5ft 4s 22 27 mph 1006.9mb 41f 29f
4:04pm 3ft 4s 22 29 mph 1004.9mb 41f 30f
3:04pm 3ft 4s 27 34 mph 1003.3mb 41f 32f
2:04pm 3.5ft 4s 25 31 mph 1002mb 41f 32f
1:04pm 4ft 4s 27 31 mph 1000.8mb 41f 32f
12:04pm 4ft 4s 31 36 mph 1000.2mb 41f 33f
11:04am  -   -  27 34 mph 999.5mb 41f 34f
10:04am  -   -  20 25 mph 998.1mb 41f 36f
9:04am  -   -  20 25 mph 996.8mb 41f 36f
8:04am  -   -  22 27 mph 996.1mb 41f 35f
7:04am  -   -  25 29 mph 995mb 41f 35f
6:04am  -   -  29 34 mph 993.6mb 41f 35f
5:04am  -   -  27 36 mph 992.7mb 41f 36f
4:04am 6.5ft 11s 29 36 mph 991mb 41f 36f
3:04am 3.5ft 4s 27 31 mph 990.2mb 41f 35f
2:04am 4ft 4s 25 29 mph 989.4mb 41f 35f
1:04am 3.5ft 6s 22 27 mph 988.6mb 41f 35f
12:04am 3.5ft 6s 20 25 mph 987.7mb 41f 34f
Sat 01/24 11:04pm 3.5ft 6s 16 20 mph 987.7mb 41f 34f
10:04pm 3.5ft 6s 13 16 mph 987.5mb 41f 33f
9:04pm 4.5ft 5s 18 22 mph 986.8mb 41f 32f
8:04pm 4.5ft 5s 25 29 mph 986mb 41f 31f
7:04pm 4ft 5s 27 34 mph 987.1mb 41f 31f
6:04pm 4.5ft 5s 22 27 mph 986.7mb 41f 31f
5:04pm 4ft 5s 25 29 mph 986.4mb 42f 33f
4:04pm 3.5ft 4s 25 29 mph 989mb 42f 33f
3:04pm 3ft 4s 20 22 mph 992.6mb 42f 33f
2:04pm 2.5ft 3s 22 25 mph 992.2mb 42f 33f
1:04pm 2ft 5s 18 20 mph 995.1mb 42f 33f
12:04pm 2.5ft 5s 13 16 mph 997.3mb 42f 32f
11:04am 2ft 5s 11 13 mph 1000.2mb 42f 32f
10:04am 2.5ft 5s 13 16 mph 1001.6mb 42f 32f
9:04am 3ft 5s 9 11 mph 1004.2mb 42f 33f
8:04am 3.5ft 5s 18 22 mph 1005.8mb 42f 35f
7:04am 3.5ft 4s 20 25 mph 1006.6mb 42f 36f
6:04am 3ft 5s 20 25 mph 1006.9mb 42f 35f
5:04am 2.5ft 5s 18 22 mph 1006.6mb 42f 35f
4:04am 3.5ft 5s 18 22 mph 1007.5mb 42f 34f
3:04am 4ft 5s 18 25 mph 1008.2mb 42f 35f
2:04am 4ft 5s 20 22 mph 1009.4mb 42f 34f
1:04am 3.5ft 5s 20 22 mph 1010mb 42f 33f
12:04am 3.5ft 5s 18 20 mph 1010.5mb 42f 33f
Fri 01/23 11:04pm 3.5ft 4s 22 27 mph 1012mb 42f 34f
10:04pm  -   -  22 27 mph 1012.4mb 42f 35f
9:04pm 4.5ft 11s 20 22 mph 1013.4mb 42f 36f
8:04pm 5ft 11s 22 29 mph 1014.5mb 42f 36f
7:04pm  -   -  20 25 mph 1015mb 42f 35f
6:04pm 4.5ft 11s 18 20 mph 1015.3mb 42f 35f
5:04pm 4ft 11s 16 20 mph 1015.5mb 42f 35f
4:04pm 4.5ft 11s 11 16 mph 1016.1mb 41f 34f
3:04pm 4ft 11s 11 16 mph 1016.5mb 41f 33f
2:04pm 4ft 11s 16 18 mph 1017.2mb 42f 33f
1:04pm 4ft 11s 16 20 mph 1018.3mb 42f 32f
12:04pm  -   -  16 22 mph 1019.3mb 42f 31f
11:04am 4.5ft 8s 13 20 mph 1020.7mb 42f 29f
10:04am 4.5ft 11s 13 18 mph 1021.8mb 42f 28f
9:04am 4ft 8s 13 18 mph 1022.2mb 42f 26f
8:04am 4.5ft 11s 16 20 mph 1022.7mb 42f 25f
7:04am 4.5ft 11s 11 13 mph 1022.6mb 42f 26f
6:04am 3.5ft 8s 11 13 mph 1022.7mb 42f 26f
5:04am 3ft 8s 13 16 mph 1022.4mb 42f 27f
4:04am 1.6ft 3s 16 18 mph 1022.1mb 42f 27f
3:04am 1.6ft 3s 16 20 mph 1021.6mb 42f 29f
2:04am 2.5ft 3s 18 22 mph 1021mb 42f 30f
1:04am 2.5ft 3s 20 25 mph 1020.3mb 42f 31f
12:04am 3ft 6s 20 25 mph 1020.3mb 42f 31f
Thu 01/22 11:04pm 2.5ft 3s 18 22 mph 1020.5mb 42f 33f
10:04pm 2ft 3s 18 22 mph 1020.6mb 42f 33f
9:04pm 3ft 6s 18 20 mph 1020.7mb 42f 34f
8:04pm 3ft 6s 16 18 mph 1020.9mb 42f 35f
7:04pm 3ft 6s 11 13 mph 1021.4mb 42f 35f
6:04pm 3.5ft 8s 7 9 mph 1021.1mb 42f 35f
5:04pm 3.5ft 5s 2 4 mph 1020.8mb 42f 33f
4:04pm 3.5ft 5s 4 7 mph 1020.5mb 42f 34f
3:04pm 3.5ft 5s 4 7 mph 1020.3mb 42f 33f
1:04pm 2.5ft 5s 9 13 mph 1020.2mb 42f 31f
12:04pm 3ft 5s 13 16 mph 1020.8mb 42f 31f
11:04am 4ft 11s 16 20 mph 1021.4mb 42f 31f
10:04am 3.5ft 5s 18 20 mph 1021.8mb 42f 30f
9:04am 4ft 5s 16 18 mph 1021.6mb 42f 29f
8:04am 3.5ft 4s 18 22 mph 1021.3mb 42f 29f